sensor_id;sensor_type;location;lat;lon;timestamp;P1;durP1;ratioP1;P2;durP2;ratioP2
4144;SDS011;2086;51.050;6.982;2022-08-03T00:00:59;2.53;;;2.43;;
4144;SDS011;2086;51.050;6.982;2022-08-03T00:03:25;1.23;;;1.13;;
4144;SDS011;2086;51.050;6.982;2022-08-03T00:05:50;3.03;;;1.97;;
4144;SDS011;2086;51.050;6.982;2022-08-03T00:08:15;1.90;;;1.67;;
4144;SDS011;2086;51.050;6.982;2022-08-03T00:10:40;2.33;;;2.20;;
4144;SDS011;2086;51.050;6.982;2022-08-03T00:13:06;1.90;;;1.80;;
4144;SDS011;2086;51.050;6.982;2022-08-03T00:15:31;2.33;;;1.77;;
4144;SDS011;2086;51.050;6.982;2022-08-03T00:17:56;5.17;;;1.90;;
4144;SDS011;2086;51.050;6.982;2022-08-03T00:20:21;3.10;;;1.93;;
4144;SDS011;2086;51.050;6.982;2022-08-03T00:22:47;2.40;;;2.20;;
4144;SDS011;2086;51.050;6.982;2022-08-03T00:25:12;2.07;;;1.67;;
4144;SDS011;2086;51.050;6.982;2022-08-03T00:27:37;1.53;;;1.43;;
4144;SDS011;2086;51.050;6.982;2022-08-03T00:30:03;2.27;;;1.90;;
4144;SDS011;2086;51.050;6.982;2022-08-03T00:32:28;1.50;;;1.40;;
4144;SDS011;2086;51.050;6.982;2022-08-03T00:34:53;2.30;;;1.53;;
4144;SDS011;2086;51.050;6.982;2022-08-03T00:37:19;2.03;;;1.40;;
4144;SDS011;2086;51.050;6.982;2022-08-03T00:39:44;1.40;;;1.33;;
4144;SDS011;2086;51.050;6.982;2022-08-03T00:42:11;1.83;;;1.73;;
4144;SDS011;2086;51.050;6.982;2022-08-03T00:44:39;1.43;;;1.33;;
4144;SDS011;2086;51.050;6.982;2022-08-03T00:47:05;2.33;;;2.13;;
4144;SDS011;2086;51.050;6.982;2022-08-03T00:49:30;1.40;;;1.30;;
4144;SDS011;2086;51.050;6.982;2022-08-03T00:51:55;1.40;;;1.40;;
4144;SDS011;2086;51.050;6.982;2022-08-03T00:54:21;6.93;;;1.67;;
4144;SDS011;2086;51.050;6.982;2022-08-03T00:56:46;1.53;;;1.43;;
4144;SDS011;2086;51.050;6.982;2022-08-03T00:59:13;1.83;;;1.73;;
4144;SDS011;2086;51.050;6.982;2022-08-03T01:01:38;6.10;;;1.70;;
4144;SDS011;2086;51.050;6.982;2022-08-03T01:04:03;1.43;;;1.33;;
4144;SDS011;2086;51.050;6.982;2022-08-03T01:09:57;1.60;;;1.50;;
4144;SDS011;2086;51.050;6.982;2022-08-03T01:11:57;1.80;;;1.53;;
4144;SDS011;2086;51.050;6.982;2022-08-03T01:14:44;2.10;;;2.00;;
4144;SDS011;2086;51.050;6.982;2022-08-03T01:17:12;1.90;;;1.80;;
4144;SDS011;2086;51.050;6.982;2022-08-03T01:19:40;1.93;;;1.83;;
4144;SDS011;2086;51.050;6.982;2022-08-03T01:27:08;3.37;;;1.93;;
4144;SDS011;2086;51.050;6.982;2022-08-03T01:32:14;2.10;;;1.40;;
4144;SDS011;2086;51.050;6.982;2022-08-03T01:34:42;2.90;;;2.07;;
4144;SDS011;2086;51.050;6.982;2022-08-03T01:37:09;1.40;;;1.30;;
4144;SDS011;2086;51.050;6.982;2022-08-03T01:39:35;1.70;;;1.60;;
4144;SDS011;2086;51.050;6.982;2022-08-03T01:42:03;2.00;;;1.90;;
4144;SDS011;2086;51.050;6.982;2022-08-03T01:44:33;1.40;;;1.30;;
4144;SDS011;2086;51.050;6.982;2022-08-03T01:47:00;2.20;;;2.10;;
4144;SDS011;2086;51.050;6.982;2022-08-03T01:49:26;1.60;;;1.50;;
4144;SDS011;2086;51.050;6.982;2022-08-03T01:51:52;1.77;;;1.67;;
4144;SDS011;2086;51.050;6.982;2022-08-03T01:54:18;2.20;;;2.10;;
4144;SDS011;2086;51.050;6.982;2022-08-03T01:56:43;2.70;;;2.30;;
4144;SDS011;2086;51.050;6.982;2022-08-03T01:59:10;2.53;;;2.33;;
4144;SDS011;2086;51.050;6.982;2022-08-03T02:01:36;2.00;;;1.90;;
4144;SDS011;2086;51.050;6.982;2022-08-03T02:04:02;1.13;;;1.13;;
4144;SDS011;2086;51.050;6.982;2022-08-03T02:06:29;1.50;;;1.40;;
4144;SDS011;2086;51.050;6.982;2022-08-03T02:08:55;2.57;;;2.00;;
4144;SDS011;2086;51.050;6.982;2022-08-03T02:11:21;1.47;;;1.37;;
4144;SDS011;2086;51.050;6.982;2022-08-03T02:13:46;1.63;;;1.47;;
4144;SDS011;2086;51.050;6.982;2022-08-03T02:16:12;1.50;;;1.40;;
4144;SDS011;2086;51.050;6.982;2022-08-03T02:18:39;5.77;;;1.93;;
4144;SDS011;2086;51.050;6.982;2022-08-03T02:21:04;1.50;;;1.40;;
4144;SDS011;2086;51.050;6.982;2022-08-03T02:23:31;2.20;;;1.57;;
4144;SDS011;2086;51.050;6.982;2022-08-03T02:25:57;2.20;;;2.00;;
4144;SDS011;2086;51.050;6.982;2022-08-03T02:28:25;1.63;;;1.53;;
4144;SDS011;2086;51.050;6.982;2022-08-03T02:30:53;1.30;;;1.30;;
4144;SDS011;2086;51.050;6.982;2022-08-03T02:33:27;1.77;;;1.50;;
4144;SDS011;2086;51.050;6.982;2022-08-03T02:35:54;1.80;;;1.70;;
4144;SDS011;2086;51.050;6.982;2022-08-03T02:38:22;1.87;;;1.77;;
4144;SDS011;2086;51.050;6.982;2022-08-03T02:40:50;2.00;;;1.80;;
4144;SDS011;2086;51.050;6.982;2022-08-03T02:43:16;2.23;;;2.10;;
4144;SDS011;2086;51.050;6.982;2022-08-03T02:45:43;3.20;;;1.60;;
4144;SDS011;2086;51.050;6.982;2022-08-03T02:48:09;1.77;;;1.67;;
4144;SDS011;2086;51.050;6.982;2022-08-03T02:50:35;1.30;;;1.30;;
4144;SDS011;2086;51.050;6.982;2022-08-03T02:53:01;2.30;;;1.83;;
4144;SDS011;2086;51.050;6.982;2022-08-03T02:55:26;2.40;;;2.30;;
4144;SDS011;2086;51.050;6.982;2022-08-03T02:57:53;1.80;;;1.70;;
4144;SDS011;2086;51.050;6.982;2022-08-03T03:00:19;2.30;;;1.30;;
4144;SDS011;2086;51.050;6.982;2022-08-03T03:02:45;1.83;;;1.73;;
4144;SDS011;2086;51.050;6.982;2022-08-03T03:05:10;2.23;;;2.03;;
4144;SDS011;2086;51.050;6.982;2022-08-03T03:07:36;1.90;;;1.80;;
4144;SDS011;2086;51.050;6.982;2022-08-03T03:10:02;2.07;;;1.87;;
4144;SDS011;2086;51.050;6.982;2022-08-03T03:12:28;2.13;;;1.63;;
4144;SDS011;2086;51.050;6.982;2022-08-03T03:14:53;1.77;;;1.43;;
4144;SDS011;2086;51.050;6.982;2022-08-03T03:17:18;2.67;;;2.47;;
4144;SDS011;2086;51.050;6.982;2022-08-03T03:19:44;1.90;;;1.80;;
4144;SDS011;2086;51.050;6.982;2022-08-03T03:22:10;1.63;;;1.53;;
4144;SDS011;2086;51.050;6.982;2022-08-03T03:24:36;1.50;;;1.40;;
4144;SDS011;2086;51.050;6.982;2022-08-03T03:27:01;1.90;;;1.80;;
4144;SDS011;2086;51.050;6.982;2022-08-03T03:29:27;2.37;;;2.27;;
4144;SDS011;2086;51.050;6.982;2022-08-03T03:31:52;2.23;;;2.03;;
4144;SDS011;2086;51.050;6.982;2022-08-03T03:34:18;1.97;;;1.87;;
4144;SDS011;2086;51.050;6.982;2022-08-03T03:36:43;2.10;;;1.40;;
4144;SDS011;2086;51.050;6.982;2022-08-03T03:39:08;1.63;;;1.43;;
4144;SDS011;2086;51.050;6.982;2022-08-03T03:41:34;2.83;;;1.97;;
4144;SDS011;2086;51.050;6.982;2022-08-03T03:44:00;2.37;;;2.27;;
4144;SDS011;2086;51.050;6.982;2022-08-03T03:46:25;1.33;;;1.23;;
4144;SDS011;2086;51.050;6.982;2022-08-03T03:48:51;1.60;;;1.50;;
4144;SDS011;2086;51.050;6.982;2022-08-03T03:51:16;1.67;;;1.57;;
4144;SDS011;2086;51.050;6.982;2022-08-03T03:53:54;2.00;;;1.87;;
4144;SDS011;2086;51.050;6.982;2022-08-03T03:56:20;2.30;;;1.93;;
4144;SDS011;2086;51.050;6.982;2022-08-03T03:58:45;2.07;;;1.87;;
4144;SDS011;2086;51.050;6.982;2022-08-03T04:01:11;3.27;;;2.27;;
4144;SDS011;2086;51.050;6.982;2022-08-03T04:03:36;2.53;;;1.43;;
4144;SDS011;2086;51.050;6.982;2022-08-03T04:06:02;1.87;;;1.77;;
4144;SDS011;2086;51.050;6.982;2022-08-03T04:08:45;1.73;;;1.63;;
4144;SDS011;2086;51.050;6.982;2022-08-03T04:14:00;2.70;;;2.00;;
4144;SDS011;2086;51.050;6.982;2022-08-03T04:16:28;1.73;;;1.63;;
4144;SDS011;2086;51.050;6.982;2022-08-03T04:19:00;1.80;;;1.70;;
4144;SDS011;2086;51.050;6.982;2022-08-03T04:21:26;1.50;;;1.50;;
4144;SDS011;2086;51.050;6.982;2022-08-03T04:23:52;2.40;;;2.30;;
4144;SDS011;2086;51.050;6.982;2022-08-03T04:26:19;10.83;;;2.33;;
4144;SDS011;2086;51.050;6.982;2022-08-03T04:28:45;3.90;;;2.10;;
4144;SDS011;2086;51.050;6.982;2022-08-03T04:31:11;1.90;;;1.80;;
4144;SDS011;2086;51.050;6.982;2022-08-03T04:33:37;2.33;;;2.23;;
4144;SDS011;2086;51.050;6.982;2022-08-03T04:36:04;7.53;;;2.47;;
4144;SDS011;2086;51.050;6.982;2022-08-03T04:38:31;2.17;;;2.07;;
4144;SDS011;2086;51.050;6.982;2022-08-03T04:40:57;2.20;;;2.10;;
4144;SDS011;2086;51.050;6.982;2022-08-03T04:43:23;1.47;;;1.37;;
4144;SDS011;2086;51.050;6.982;2022-08-03T04:45:49;2.07;;;1.97;;
4144;SDS011;2086;51.050;6.982;2022-08-03T04:48:15;3.83;;;1.80;;
4144;SDS011;2086;51.050;6.982;2022-08-03T04:50:41;1.90;;;1.80;;
4144;SDS011;2086;51.050;6.982;2022-08-03T04:53:06;2.67;;;1.50;;
4144;SDS011;2086;51.050;6.982;2022-08-03T04:55:32;2.53;;;2.33;;
4144;SDS011;2086;51.050;6.982;2022-08-03T04:57:59;3.50;;;2.17;;
4144;SDS011;2086;51.050;6.982;2022-08-03T05:00:24;2.80;;;1.67;;
4144;SDS011;2086;51.050;6.982;2022-08-03T05:02:50;3.17;;;1.73;;
4144;SDS011;2086;51.050;6.982;2022-08-03T05:05:15;1.93;;;1.63;;
4144;SDS011;2086;51.050;6.982;2022-08-03T05:07:41;2.33;;;2.20;;
4144;SDS011;2086;51.050;6.982;2022-08-03T05:10:07;1.93;;;1.73;;
4144;SDS011;2086;51.050;6.982;2022-08-03T05:12:33;2.80;;;2.23;;
4144;SDS011;2086;51.050;6.982;2022-08-03T05:14:58;2.90;;;2.70;;
4144;SDS011;2086;51.050;6.982;2022-08-03T05:17:23;1.93;;;1.77;;
4144;SDS011;2086;51.050;6.982;2022-08-03T05:19:49;2.60;;;2.40;;
4144;SDS011;2086;51.050;6.982;2022-08-03T05:22:14;2.00;;;1.90;;
4144;SDS011;2086;51.050;6.982;2022-08-03T05:24:39;1.70;;;1.60;;
4144;SDS011;2086;51.050;6.982;2022-08-03T05:27:04;4.60;;;1.90;;
4144;SDS011;2086;51.050;6.982;2022-08-03T05:29:30;2.63;;;2.40;;
4144;SDS011;2086;51.050;6.982;2022-08-03T05:31:55;2.00;;;1.90;;
4144;SDS011;2086;51.050;6.982;2022-08-03T05:34:20;2.80;;;2.10;;
4144;SDS011;2086;51.050;6.982;2022-08-03T05:36:45;7.60;;;2.30;;
4144;SDS011;2086;51.050;6.982;2022-08-03T05:39:11;2.83;;;2.63;;
4144;SDS011;2086;51.050;6.982;2022-08-03T05:41:36;2.27;;;2.17;;
4144;SDS011;2086;51.050;6.982;2022-08-03T05:44:01;2.10;;;2.00;;
4144;SDS011;2086;51.050;6.982;2022-08-03T05:46:26;2.30;;;2.10;;
4144;SDS011;2086;51.050;6.982;2022-08-03T05:48:52;1.80;;;1.70;;
4144;SDS011;2086;51.050;6.982;2022-08-03T05:51:17;1.53;;;1.43;;
4144;SDS011;2086;51.050;6.982;2022-08-03T05:53:42;2.47;;;2.37;;
4144;SDS011;2086;51.050;6.982;2022-08-03T05:56:08;2.30;;;2.20;;
4144;SDS011;2086;51.050;6.982;2022-08-03T05:58:33;2.43;;;1.70;;
4144;SDS011;2086;51.050;6.982;2022-08-03T06:00:58;4.30;;;2.20;;
4144;SDS011;2086;51.050;6.982;2022-08-03T06:03:24;2.17;;;2.07;;
4144;SDS011;2086;51.050;6.982;2022-08-03T06:05:49;3.33;;;2.07;;
4144;SDS011;2086;51.050;6.982;2022-08-03T06:08:14;1.70;;;1.60;;
4144;SDS011;2086;51.050;6.982;2022-08-03T06:10:40;2.07;;;1.93;;
4144;SDS011;2086;51.050;6.982;2022-08-03T06:13:05;2.00;;;1.90;;
4144;SDS011;2086;51.050;6.982;2022-08-03T06:15:30;1.73;;;1.63;;
4144;SDS011;2086;51.050;6.982;2022-08-03T06:17:58;2.63;;;2.53;;
4144;SDS011;2086;51.050;6.982;2022-08-03T06:20:23;2.10;;;1.80;;
4144;SDS011;2086;51.050;6.982;2022-08-03T06:22:49;1.80;;;1.70;;
4144;SDS011;2086;51.050;6.982;2022-08-03T06:25:14;2.80;;;2.60;;
4144;SDS011;2086;51.050;6.982;2022-08-03T06:27:40;1.77;;;1.67;;
4144;SDS011;2086;51.050;6.982;2022-08-03T06:30:06;4.27;;;2.33;;
4144;SDS011;2086;51.050;6.982;2022-08-03T06:32:38;2.03;;;1.93;;
4144;SDS011;2086;51.050;6.982;2022-08-03T06:35:05;1.83;;;1.73;;
4144;SDS011;2086;51.050;6.982;2022-08-03T06:37:31;1.90;;;1.80;;
4144;SDS011;2086;51.050;6.982;2022-08-03T06:39:56;5.50;;;2.40;;
4144;SDS011;2086;51.050;6.982;2022-08-03T06:42:21;1.80;;;1.70;;
4144;SDS011;2086;51.050;6.982;2022-08-03T06:44:46;2.27;;;1.80;;
4144;SDS011;2086;51.050;6.982;2022-08-03T06:47:12;2.60;;;2.40;;
4144;SDS011;2086;51.050;6.982;2022-08-03T06:49:37;1.30;;;1.30;;
4144;SDS011;2086;51.050;6.982;2022-08-03T06:52:02;1.70;;;1.60;;
4144;SDS011;2086;51.050;6.982;2022-08-03T06:54:28;1.67;;;1.57;;
4144;SDS011;2086;51.050;6.982;2022-08-03T06:56:53;1.80;;;1.50;;
4144;SDS011;2086;51.050;6.982;2022-08-03T06:59:19;2.33;;;2.23;;
4144;SDS011;2086;51.050;6.982;2022-08-03T07:01:44;2.80;;;1.80;;
4144;SDS011;2086;51.050;6.982;2022-08-03T07:04:09;2.10;;;2.00;;
4144;SDS011;2086;51.050;6.982;2022-08-03T07:06:36;4.30;;;2.60;;
4144;SDS011;2086;51.050;6.982;2022-08-03T07:09:01;2.10;;;2.00;;
4144;SDS011;2086;51.050;6.982;2022-08-03T07:11:26;2.17;;;2.07;;
4144;SDS011;2086;51.050;6.982;2022-08-03T07:13:52;2.63;;;2.43;;
4144;SDS011;2086;51.050;6.982;2022-08-03T07:16:17;2.40;;;2.23;;
4144;SDS011;2086;51.050;6.982;2022-08-03T07:18:43;1.80;;;1.70;;
4144;SDS011;2086;51.050;6.982;2022-08-03T07:21:08;3.20;;;1.93;;
4144;SDS011;2086;51.050;6.982;2022-08-03T07:23:35;2.90;;;2.10;;
4144;SDS011;2086;51.050;6.982;2022-08-03T07:26:00;1.77;;;1.67;;
4144;SDS011;2086;51.050;6.982;2022-08-03T07:28:25;1.87;;;1.77;;
4144;SDS011;2086;51.050;6.982;2022-08-03T07:30:50;2.20;;;1.90;;
4144;SDS011;2086;51.050;6.982;2022-08-03T07:33:16;1.60;;;1.50;;
4144;SDS011;2086;51.050;6.982;2022-08-03T07:35:41;1.43;;;1.20;;
4144;SDS011;2086;51.050;6.982;2022-08-03T07:38:06;3.90;;;1.33;;
4144;SDS011;2086;51.050;6.982;2022-08-03T07:40:31;2.53;;;1.63;;
4144;SDS011;2086;51.050;6.982;2022-08-03T07:42:57;2.00;;;1.13;;
4144;SDS011;2086;51.050;6.982;2022-08-03T07:45:22;2.50;;;2.40;;
4144;SDS011;2086;51.050;6.982;2022-08-03T07:47:48;2.73;;;2.53;;
4144;SDS011;2086;51.050;6.982;2022-08-03T07:50:13;7.13;;;2.27;;
4144;SDS011;2086;51.050;6.982;2022-08-03T07:52:38;2.73;;;1.93;;
4144;SDS011;2086;51.050;6.982;2022-08-03T07:55:18;2.63;;;1.63;;
4144;SDS011;2086;51.050;6.982;2022-08-03T07:57:43;2.90;;;2.70;;
4144;SDS011;2086;51.050;6.982;2022-08-03T08:00:13;3.57;;;1.50;;
4144;SDS011;2086;51.050;6.982;2022-08-03T08:02:39;1.70;;;1.60;;
4144;SDS011;2086;51.050;6.982;2022-08-03T08:05:05;2.83;;;2.30;;
4144;SDS011;2086;51.050;6.982;2022-08-03T08:07:30;1.10;;;1.03;;
4144;SDS011;2086;51.050;6.982;2022-08-03T08:09:56;1.87;;;1.30;;
4144;SDS011;2086;51.050;6.982;2022-08-03T08:12:21;1.30;;;1.20;;
4144;SDS011;2086;51.050;6.982;2022-08-03T08:14:46;1.33;;;1.23;;
4144;SDS011;2086;51.050;6.982;2022-08-03T08:17:12;3.30;;;1.23;;
4144;SDS011;2086;51.050;6.982;2022-08-03T08:19:37;1.60;;;1.17;;
4144;SDS011;2086;51.050;6.982;2022-08-03T08:22:02;2.13;;;0.83;;
4144;SDS011;2086;51.050;6.982;2022-08-03T08:24:27;5.53;;;1.30;;
4144;SDS011;2086;51.050;6.982;2022-08-03T08:26:54;0.80;;;0.80;;
4144;SDS011;2086;51.050;6.982;2022-08-03T08:29:19;1.13;;;1.13;;
4144;SDS011;2086;51.050;6.982;2022-08-03T08:31:47;1.60;;;1.17;;
4144;SDS011;2086;51.050;6.982;2022-08-03T08:34:12;5.80;;;1.30;;
4144;SDS011;2086;51.050;6.982;2022-08-03T08:36:37;1.17;;;1.17;;
4144;SDS011;2086;51.050;6.982;2022-08-03T08:39:03;2.73;;;1.53;;
4144;SDS011;2086;51.050;6.982;2022-08-03T08:41:28;6.40;;;1.00;;
4144;SDS011;2086;51.050;6.982;2022-08-03T08:43:53;0.90;;;0.90;;
4144;SDS011;2086;51.050;6.982;2022-08-03T08:46:19;4.60;;;1.00;;
4144;SDS011;2086;51.050;6.982;2022-08-03T08:48:44;2.20;;;1.07;;
4144;SDS011;2086;51.050;6.982;2022-08-03T08:51:10;1.20;;;1.00;;
4144;SDS011;2086;51.050;6.982;2022-08-03T08:53:36;1.20;;;1.07;;
4144;SDS011;2086;51.050;6.982;2022-08-03T08:56:04;1.17;;;1.07;;
4144;SDS011;2086;51.050;6.982;2022-08-03T08:58:36;0.90;;;0.90;;
4144;SDS011;2086;51.050;6.982;2022-08-03T09:01:02;1.83;;;1.10;;
4144;SDS011;2086;51.050;6.982;2022-08-03T09:03:28;1.23;;;0.80;;
4144;SDS011;2086;51.050;6.982;2022-08-03T09:05:53;0.60;;;0.60;;
4144;SDS011;2086;51.050;6.982;2022-08-03T09:08:19;0.83;;;0.83;;
4144;SDS011;2086;51.050;6.982;2022-08-03T09:10:45;0.90;;;0.90;;
4144;SDS011;2086;51.050;6.982;2022-08-03T09:13:10;0.80;;;0.70;;
4144;SDS011;2086;51.050;6.982;2022-08-03T09:15:36;0.63;;;0.63;;
4144;SDS011;2086;51.050;6.982;2022-08-03T09:18:03;0.70;;;0.70;;
4144;SDS011;2086;51.050;6.982;2022-08-03T09:20:29;0.87;;;0.70;;
4144;SDS011;2086;51.050;6.982;2022-08-03T09:22:59;1.60;;;0.70;;
4144;SDS011;2086;51.050;6.982;2022-08-03T09:25:25;0.60;;;0.60;;
4144;SDS011;2086;51.050;6.982;2022-08-03T09:27:51;0.57;;;0.57;;
4144;SDS011;2086;51.050;6.982;2022-08-03T09:30:17;0.83;;;0.67;;
4144;SDS011;2086;51.050;6.982;2022-08-03T09:32:42;2.90;;;0.80;;
4144;SDS011;2086;51.050;6.982;2022-08-03T09:35:12;0.75;;;0.75;;
4144;SDS011;2086;51.050;6.982;2022-08-03T09:37:37;0.80;;;0.80;;
4144;SDS011;2086;51.050;6.982;2022-08-03T09:40:03;3.33;;;0.85;;
4144;SDS011;2086;51.050;6.982;2022-08-03T09:42:28;0.75;;;0.75;;
4144;SDS011;2086;51.050;6.982;2022-08-03T09:44:54;1.08;;;1.08;;
4144;SDS011;2086;51.050;6.982;2022-08-03T09:50:00;1.20;;;0.88;;
4144;SDS011;2086;51.050;6.982;2022-08-03T09:52:43;0.90;;;0.90;;
4144;SDS011;2086;51.050;6.982;2022-08-03T09:55:12;0.65;;;0.65;;
4144;SDS011;2086;51.050;6.982;2022-08-03T09:57:37;0.82;;;0.60;;
4144;SDS011;2086;51.050;6.982;2022-08-03T10:00:22;2.05;;;0.82;;
4144;SDS011;2086;51.050;6.982;2022-08-03T10:02:48;0.80;;;0.80;;
4144;SDS011;2086;51.050;6.982;2022-08-03T10:05:14;0.50;;;0.50;;
4144;SDS011;2086;51.050;6.982;2022-08-03T10:10:08;0.50;;;0.43;;
4144;SDS011;2086;51.050;6.982;2022-08-03T10:12:34;0.40;;;0.40;;
4144;SDS011;2086;51.050;6.982;2022-08-03T10:15:00;1.00;;;0.40;;
4144;SDS011;2086;51.050;6.982;2022-08-03T10:17:26;3.40;;;0.60;;
4144;SDS011;2086;51.050;6.982;2022-08-03T10:19:52;0.90;;;0.60;;
4144;SDS011;2086;51.050;6.982;2022-08-03T10:24:50;0.73;;;0.40;;
4144;SDS011;2086;51.050;6.982;2022-08-03T10:27:17;0.40;;;0.40;;
4144;SDS011;2086;51.050;6.982;2022-08-03T10:29:44;0.70;;;0.60;;
4144;SDS011;2086;51.050;6.982;2022-08-03T10:32:12;0.40;;;0.40;;
4144;SDS011;2086;51.050;6.982;2022-08-03T10:34:43;0.60;;;0.60;;
4144;SDS011;2086;51.050;6.982;2022-08-03T10:37:09;0.60;;;0.50;;
4144;SDS011;2086;51.050;6.982;2022-08-03T10:39:35;0.43;;;0.43;;
4144;SDS011;2086;51.050;6.982;2022-08-03T10:42:00;0.45;;;0.45;;
4144;SDS011;2086;51.050;6.982;2022-08-03T10:44:27;0.50;;;0.40;;
4144;SDS011;2086;51.050;6.982;2022-08-03T10:46:55;0.52;;;0.52;;
4144;SDS011;2086;51.050;6.982;2022-08-03T10:49:20;0.88;;;0.88;;
4144;SDS011;2086;51.050;6.982;2022-08-03T10:51:46;0.40;;;0.38;;
4144;SDS011;2086;51.050;6.982;2022-08-03T10:56:56;2.70;;;0.30;;
4144;SDS011;2086;51.050;6.982;2022-08-03T11:02:11;1.23;;;0.40;;
4144;SDS011;2086;51.050;6.982;2022-08-03T11:04:37;2.58;;;0.50;;
4144;SDS011;2086;51.050;6.982;2022-08-03T11:09:44;0.40;;;0.40;;
4144;SDS011;2086;51.050;6.982;2022-08-03T11:14:46;0.40;;;0.40;;
4144;SDS011;2086;51.050;6.982;2022-08-03T11:17:12;0.30;;;0.30;;
4144;SDS011;2086;51.050;6.982;2022-08-03T11:19:43;0.50;;;0.50;;
4144;SDS011;2086;51.050;6.982;2022-08-03T11:22:09;0.50;;;0.50;;
4144;SDS011;2086;51.050;6.982;2022-08-03T11:43:03;0.50;;;0.38;;
4144;SDS011;2086;51.050;6.982;2022-08-03T11:45:29;0.40;;;0.40;;
4144;SDS011;2086;51.050;6.982;2022-08-03T11:47:55;0.30;;;0.30;;
4144;SDS011;2086;51.050;6.982;2022-08-03T11:50:22;0.68;;;0.68;;
4144;SDS011;2086;51.050;6.982;2022-08-03T11:52:48;1.33;;;0.50;;
4144;SDS011;2086;51.050;6.982;2022-08-03T11:55:14;2.55;;;0.75;;
4144;SDS011;2086;51.050;6.982;2022-08-03T11:57:41;0.43;;;0.40;;
4144;SDS011;2086;51.050;6.982;2022-08-03T12:00:22;7.85;;;0.50;;
4144;SDS011;2086;51.050;6.982;2022-08-03T12:02:59;0.40;;;0.40;;
4144;SDS011;2086;51.050;6.982;2022-08-03T12:05:34;0.70;;;0.70;;
4144;SDS011;2086;51.050;6.982;2022-08-03T12:08:00;1.67;;;0.40;;
4144;SDS011;2086;51.050;6.982;2022-08-03T12:10:25;0.40;;;0.40;;
4144;SDS011;2086;51.050;6.982;2022-08-03T12:12:55;0.40;;;0.40;;
4144;SDS011;2086;51.050;6.982;2022-08-03T12:15:28;0.40;;;0.40;;
4144;SDS011;2086;51.050;6.982;2022-08-03T12:17:53;0.40;;;0.40;;
4144;SDS011;2086;51.050;6.982;2022-08-03T12:20:23;1.10;;;0.35;;
4144;SDS011;2086;51.050;6.982;2022-08-03T12:22:49;1.38;;;0.40;;
4144;SDS011;2086;51.050;6.982;2022-08-03T12:25:21;0.47;;;0.40;;
4144;SDS011;2086;51.050;6.982;2022-08-03T12:27:47;0.73;;;0.50;;
4144;SDS011;2086;51.050;6.982;2022-08-03T12:30:13;0.70;;;0.43;;
4144;SDS011;2086;51.050;6.982;2022-08-03T12:32:38;0.40;;;0.40;;
4144;SDS011;2086;51.050;6.982;2022-08-03T12:35:03;0.47;;;0.47;;
4144;SDS011;2086;51.050;6.982;2022-08-03T12:37:30;0.30;;;0.30;;
4144;SDS011;2086;51.050;6.982;2022-08-03T12:39:56;0.50;;;0.50;;
4144;SDS011;2086;51.050;6.982;2022-08-03T12:42:29;0.50;;;0.40;;
4144;SDS011;2086;51.050;6.982;2022-08-03T12:44:54;0.45;;;0.40;;
4144;SDS011;2086;51.050;6.982;2022-08-03T12:47:19;3.00;;;0.50;;
4144;SDS011;2086;51.050;6.982;2022-08-03T12:49:45;0.50;;;0.40;;
4144;SDS011;2086;51.050;6.982;2022-08-03T12:52:10;2.60;;;0.50;;
4144;SDS011;2086;51.050;6.982;2022-08-03T12:54:35;0.50;;;0.50;;
4144;SDS011;2086;51.050;6.982;2022-08-03T12:57:02;0.40;;;0.40;;
4144;SDS011;2086;51.050;6.982;2022-08-03T12:59:34;6.72;;;0.50;;
4144;SDS011;2086;51.050;6.982;2022-08-03T13:02:00;0.40;;;0.40;;
4144;SDS011;2086;51.050;6.982;2022-08-03T13:04:26;0.40;;;0.40;;
4144;SDS011;2086;51.050;6.982;2022-08-03T13:06:55;0.40;;;0.40;;
4144;SDS011;2086;51.050;6.982;2022-08-03T13:09:21;1.30;;;0.35;;
4144;SDS011;2086;51.050;6.982;2022-08-03T13:12:02;0.40;;;0.40;;
4144;SDS011;2086;51.050;6.982;2022-08-03T13:14:28;0.93;;;0.40;;
4144;SDS011;2086;51.050;6.982;2022-08-03T13:16:53;0.40;;;0.40;;
4144;SDS011;2086;51.050;6.982;2022-08-03T13:19:19;0.65;;;0.40;;
4144;SDS011;2086;51.050;6.982;2022-08-03T13:21:44;0.35;;;0.35;;
4144;SDS011;2086;51.050;6.982;2022-08-03T13:24:10;3.13;;;0.60;;
4144;SDS011;2086;51.050;6.982;2022-08-03T13:26:35;0.70;;;0.70;;
4144;SDS011;2086;51.050;6.982;2022-08-03T13:29:00;0.40;;;0.40;;
4144;SDS011;2086;51.050;6.982;2022-08-03T13:31:25;0.38;;;0.38;;
4144;SDS011;2086;51.050;6.982;2022-08-03T13:33:50;0.47;;;0.40;;
4144;SDS011;2086;51.050;6.982;2022-08-03T13:36:16;0.50;;;0.50;;
4144;SDS011;2086;51.050;6.982;2022-08-03T13:38:41;6.32;;;0.43;;
4144;SDS011;2086;51.050;6.982;2022-08-03T13:41:06;0.50;;;0.35;;
4144;SDS011;2086;51.050;6.982;2022-08-03T13:43:31;0.50;;;0.47;;
4144;SDS011;2086;51.050;6.982;2022-08-03T13:45:57;0.47;;;0.47;;
4144;SDS011;2086;51.050;6.982;2022-08-03T13:48:22;0.80;;;0.40;;
4144;SDS011;2086;51.050;6.982;2022-08-03T13:50:47;0.32;;;0.32;;
4144;SDS011;2086;51.050;6.982;2022-08-03T13:53:12;0.50;;;0.50;;
4144;SDS011;2086;51.050;6.982;2022-08-03T13:55:38;1.52;;;0.50;;
4144;SDS011;2086;51.050;6.982;2022-08-03T13:58:03;0.40;;;0.40;;
4144;SDS011;2086;51.050;6.982;2022-08-03T14:00:28;0.50;;;0.50;;
4144;SDS011;2086;51.050;6.982;2022-08-03T14:02:54;1.08;;;0.50;;
4144;SDS011;2086;51.050;6.982;2022-08-03T14:05:19;0.50;;;0.40;;
4144;SDS011;2086;51.050;6.982;2022-08-03T14:07:44;0.47;;;0.47;;
4144;SDS011;2086;51.050;6.982;2022-08-03T14:10:10;3.53;;;0.40;;
4144;SDS011;2086;51.050;6.982;2022-08-03T14:12:35;1.73;;;0.60;;
4144;SDS011;2086;51.050;6.982;2022-08-03T14:15:00;0.38;;;0.32;;
4144;SDS011;2086;51.050;6.982;2022-08-03T14:17:25;0.70;;;0.50;;
4144;SDS011;2086;51.050;6.982;2022-08-03T14:19:50;0.55;;;0.55;;
4144;SDS011;2086;51.050;6.982;2022-08-03T14:22:16;0.75;;;0.75;;
4144;SDS011;2086;51.050;6.982;2022-08-03T14:24:41;0.70;;;0.65;;
4144;SDS011;2086;51.050;6.982;2022-08-03T14:27:06;0.47;;;0.47;;
4144;SDS011;2086;51.050;6.982;2022-08-03T14:29:32;0.50;;;0.50;;
4144;SDS011;2086;51.050;6.982;2022-08-03T14:31:57;2.90;;;0.63;;
4144;SDS011;2086;51.050;6.982;2022-08-03T14:34:22;0.50;;;0.40;;
4144;SDS011;2086;51.050;6.982;2022-08-03T14:36:48;0.65;;;0.45;;
4144;SDS011;2086;51.050;6.982;2022-08-03T14:39:13;0.82;;;0.82;;
4144;SDS011;2086;51.050;6.982;2022-08-03T14:41:38;0.50;;;0.50;;
4144;SDS011;2086;51.050;6.982;2022-08-03T14:44:04;2.35;;;0.63;;
4144;SDS011;2086;51.050;6.982;2022-08-03T14:46:29;0.40;;;0.40;;
4144;SDS011;2086;51.050;6.982;2022-08-03T14:48:55;0.60;;;0.50;;
4144;SDS011;2086;51.050;6.982;2022-08-03T14:51:20;3.83;;;0.60;;
4144;SDS011;2086;51.050;6.982;2022-08-03T14:53:45;0.43;;;0.40;;
4144;SDS011;2086;51.050;6.982;2022-08-03T14:56:10;0.50;;;0.40;;
4144;SDS011;2086;51.050;6.982;2022-08-03T14:58:36;0.82;;;0.50;;
4144;SDS011;2086;51.050;6.982;2022-08-03T15:01:01;0.98;;;0.82;;
4144;SDS011;2086;51.050;6.982;2022-08-03T15:03:27;0.50;;;0.40;;
4144;SDS011;2086;51.050;6.982;2022-08-03T15:05:53;0.57;;;0.57;;
4144;SDS011;2086;51.050;6.982;2022-08-03T15:08:19;0.40;;;0.40;;
4144;SDS011;2086;51.050;6.982;2022-08-03T15:10:44;0.80;;;0.47;;
4144;SDS011;2086;51.050;6.982;2022-08-03T15:13:10;0.98;;;0.45;;
4144;SDS011;2086;51.050;6.982;2022-08-03T15:15:35;1.05;;;0.65;;
4144;SDS011;2086;51.050;6.982;2022-08-03T15:18:00;0.85;;;0.50;;
4144;SDS011;2086;51.050;6.982;2022-08-03T15:20:26;1.35;;;0.60;;
4144;SDS011;2086;51.050;6.982;2022-08-03T15:22:51;0.60;;;0.60;;
4144;SDS011;2086;51.050;6.982;2022-08-03T15:25:16;0.68;;;0.50;;
4144;SDS011;2086;51.050;6.982;2022-08-03T15:27:41;1.67;;;0.60;;
4144;SDS011;2086;51.050;6.982;2022-08-03T15:30:07;0.57;;;0.50;;
4144;SDS011;2086;51.050;6.982;2022-08-03T15:32:34;0.60;;;0.60;;
4144;SDS011;2086;51.050;6.982;2022-08-03T15:34:59;0.50;;;0.40;;
4144;SDS011;2086;51.050;6.982;2022-08-03T15:37:24;0.60;;;0.60;;
4144;SDS011;2086;51.050;6.982;2022-08-03T15:39:49;1.37;;;1.27;;
4144;SDS011;2086;51.050;6.982;2022-08-03T15:42:15;1.00;;;0.73;;
4144;SDS011;2086;51.050;6.982;2022-08-03T15:44:40;0.50;;;0.47;;
4144;SDS011;2086;51.050;6.982;2022-08-03T15:47:05;0.73;;;0.50;;
4144;SDS011;2086;51.050;6.982;2022-08-03T15:49:30;1.43;;;0.60;;
4144;SDS011;2086;51.050;6.982;2022-08-03T15:51:56;0.50;;;0.50;;
4144;SDS011;2086;51.050;6.982;2022-08-03T15:54:21;1.77;;;0.60;;
4144;SDS011;2086;51.050;6.982;2022-08-03T15:56:46;3.23;;;0.57;;
4144;SDS011;2086;51.050;6.982;2022-08-03T15:59:12;0.80;;;0.80;;